Time;durP1;ratioP1;P1;durP2;ratioP2;P2;SDS_P1;SDS_P2;PMS_P1;PMS_P2;Temp;Humidity;BMP_temperature;BMP_pressure;BME280_temperature;BME280_humidity;BME280_pressure;Samples;Min_cycle;Max_cycle;Signal;HPM_P1;HPM_P2
2023/11/16 00:01:59;;;;;;;8.18;0.90;;;9.30;99.90;;;;;;5087556;28;20048;-89
2023/11/16 00:04:26;;;;;;;7.57;0.98;;;9.20;99.90;;;;;;5090187;28;20377;-89
2023/11/16 00:06:52;;;;;;;11.63;1.40;;;9.20;99.90;;;;;;5070937;28;20056;-88
2023/11/16 00:09:18;;;;;;;8.82;1.38;;;9.20;99.90;;;;;;5072104;28;20034;-90
2023/11/16 00:11:44;;;;;;;8.02;1.10;;;9.20;99.90;;;;;;5088328;28;20028;-89
2023/11/16 00:14:10;;;;;;;10.80;1.30;;;9.20;99.90;;;;;;5074569;28;20426;-89
2023/11/16 00:16:37;;;;;;;10.57;1.20;;;9.10;99.90;;;;;;5090451;28;20036;-90
2023/11/16 00:19:05;;;;;;;15.02;1.88;;;9.10;99.90;;;;;;5069844;28;20070;-90
2023/11/16 00:21:32;;;;;;;11.45;2.33;;;9.00;99.90;;;;;;5081562;28;20058;-89
2023/11/16 00:23:58;;;;;;;12.15;1.50;;;8.90;99.90;;;;;;5074048;28;20024;-89
2023/11/16 00:26:24;;;;;;;11.93;1.63;;;8.80;99.90;;;;;;5072569;28;20388;-90
2023/11/16 00:28:54;;;;;;;6.90;1.55;;;8.80;99.90;;;;;;5073079;28;20024;-90
2023/11/16 00:31:20;;;;;;;12.45;1.63;;;8.70;99.90;;;;;;5072116;28;20105;-90
2023/11/16 00:33:46;;;;;;;11.57;2.28;;;8.60;99.90;;;;;;5074148;28;20024;-90
2023/11/16 00:36:12;;;;;;;16.00;2.22;;;8.60;99.90;;;;;;5072387;28;20020;-89
2023/11/16 00:38:38;;;;;;;11.55;1.60;;;8.70;99.90;;;;;;5088400;28;20036;-88
2023/11/16 00:41:08;;;;;;;10.68;1.60;;;8.60;99.90;;;;;;5073628;28;20020;-89
2023/11/16 00:43:36;;;;;;;9.73;1.98;;;8.60;99.90;;;;;;5085855;28;20029;-90
2023/11/16 00:46:04;;;;;;;9.13;2.03;;;8.70;99.90;;;;;;5071522;28;20032;-89
2023/11/16 00:48:32;;;;;;;12.13;1.92;;;8.70;99.90;;;;;;5070581;28;20036;-89
2023/11/16 00:50:58;;;;;;;10.85;1.55;;;8.70;99.90;;;;;;5087337;28;20044;-89
2023/11/16 00:53:25;;;;;;;10.65;2.28;;;8.60;99.90;;;;;;5093787;28;20039;-90
2023/11/16 00:55:51;;;;;;;10.38;1.92;;;8.60;99.90;;;;;;5071934;28;20016;-89
2023/11/16 00:58:19;;;;;;;10.38;2.17;;;8.70;99.90;;;;;;5078414;28;20028;-89
2023/11/16 01:00:49;;;;;;;6.85;1.35;;;8.60;99.90;;;;;;5068694;28;20369;-89
2023/11/16 01:03:14;;;;;;;10.07;1.85;;;8.60;99.90;;;;;;5069851;28;20072;-90
2023/11/16 01:05:40;;;;;;;10.52;1.27;;;8.60;99.90;;;;;;5069569;28;20032;-89
2023/11/16 01:08:09;;;;;;;14.30;2.00;;;8.60;99.90;;;;;;5087459;28;20066;-89
2023/11/16 01:10:37;;;;;;;9.88;2.10;;;8.60;99.90;;;;;;5073623;28;20036;-90
2023/11/16 01:13:07;;;;;;;12.13;2.55;;;8.50;99.90;;;;;;5067070;28;20024;-89
2023/11/16 01:15:38;;;;;;;13.05;1.55;;;8.50;99.90;;;;;;5082341;28;20028;-90
2023/11/16 01:18:12;;;;;;;8.75;1.70;;;8.50;99.90;;;;;;5074655;28;20032;-89
2023/11/16 01:20:41;;;;;;;8.27;1.65;;;8.50;99.90;;;;;;5086894;28;20028;-88
2023/11/16 01:23:11;;;;;;;5.90;1.42;;;8.40;99.90;;;;;;5069821;28;20028;-89
2023/11/16 01:25:41;;;;;;;12.95;2.65;;;8.40;99.90;;;;;;5092862;28;20028;-89
2023/11/16 01:28:15;;;;;;;10.00;1.17;;;8.40;99.90;;;;;;5077228;28;20442;-89
2023/11/16 01:30:40;;;;;;;9.77;2.30;;;8.30;99.90;;;;;;5076874;28;20053;-90
2023/11/16 01:33:08;;;;;;;7.65;1.85;;;8.30;99.90;;;;;;5094254;28;20028;-89
2023/11/16 01:35:36;;;;;;;7.40;1.92;;;8.30;99.90;;;;;;5074139;28;20488;-89
2023/11/16 01:38:05;;;;;;;12.52;2.10;;;8.30;99.90;;;;;;5077236;28;20464;-90
2023/11/16 01:40:34;;;;;;;7.93;1.70;;;8.30;99.90;;;;;;5068274;28;20027;-89
2023/11/16 01:43:00;;;;;;;14.57;1.55;;;8.30;99.90;;;;;;5075404;28;20056;-90
2023/11/16 01:45:32;;;;;;;9.77;1.50;;;8.30;99.90;;;;;;5076226;28;20024;-90
2023/11/16 01:48:04;;;;;;;12.30;2.27;;;8.40;99.90;;;;;;5074786;28;20110;-90
2023/11/16 01:50:35;;;;;;;12.05;1.65;;;8.40;99.90;;;;;;5072957;28;20082;-89
2023/11/16 01:53:09;;;;;;;10.55;1.58;;;8.40;99.90;;;;;;5062511;28;20036;-90
2023/11/16 01:55:37;;;;;;;8.77;1.30;;;8.50;99.90;;;;;;5070037;28;20020;-89
2023/11/16 01:58:04;;;;;;;13.68;1.77;;;8.60;99.90;;;;;;5075030;28;20054;-90
2023/11/16 02:00:31;;;;;;;12.20;1.92;;;8.60;99.90;;;;;;5093664;28;20030;-88
2023/11/16 02:03:01;;;;;;;13.55;1.77;;;8.70;99.90;;;;;;5088588;28;20068;-87
2023/11/16 02:05:27;;;;;;;8.23;0.90;;;8.70;99.90;;;;;;5071009;28;20488;-87
2023/11/16 02:07:52;;;;;;;11.52;1.38;;;8.70;99.90;;;;;;5074893;28;20035;-87
2023/11/16 02:10:18;;;;;;;11.88;1.48;;;8.70;99.90;;;;;;5075740;28;20019;-87
2023/11/16 02:12:53;;;;;;;7.95;1.10;;;8.70;99.90;;;;;;5073910;28;20384;-87
2023/11/16 02:15:19;;;;;;;11.75;1.48;;;8.70;99.90;;;;;;5092076;28;20043;-87
2023/11/16 02:17:44;;;;;;;9.30;1.15;;;8.70;99.90;;;;;;5075532;28;20020;-87
2023/11/16 02:20:11;;;;;;;13.48;1.10;;;8.70;99.90;;;;;;5073792;28;20020;-88
2023/11/16 02:22:38;;;;;;;5.60;0.80;;;8.70;99.90;;;;;;5090798;28;20032;-87
2023/11/16 02:25:08;;;;;;;8.25;1.30;;;8.70;99.90;;;;;;5076546;28;20028;-88
2023/11/16 02:27:34;;;;;;;8.45;1.20;;;8.70;99.90;;;;;;5090180;28;20063;-87
2023/11/16 02:30:00;;;;;;;7.57;1.60;;;8.70;99.90;;;;;;5070293;28;20044;-87
2023/11/16 02:32:26;;;;;;;8.45;1.05;;;8.70;99.90;;;;;;5073836;28;20060;-85
2023/11/16 02:34:52;;;;;;;8.13;1.63;;;8.70;99.90;;;;;;5074638;28;20008;-86
2023/11/16 02:37:18;;;;;;;6.60;1.00;;;8.70;99.90;;;;;;5074723;28;20487;-86
2023/11/16 02:39:44;;;;;;;10.07;1.27;;;8.60;99.90;;;;;;5075603;28;20027;-87
2023/11/16 02:42:12;;;;;;;12.05;2.03;;;8.60;99.90;;;;;;5072935;28;20028;-85
2023/11/16 02:44:39;;;;;;;10.65;1.75;;;8.60;99.90;;;;;;5073813;28;20028;-86
2023/11/16 02:47:06;;;;;;;11.63;1.80;;;8.60;99.90;;;;;;5075104;28;20127;-86
2023/11/16 02:49:33;;;;;;;9.85;1.45;;;8.50;99.90;;;;;;5075607;28;20027;-86
2023/11/16 02:51:58;;;;;;;7.82;1.55;;;8.50;99.90;;;;;;5074761;28;20024;-86
2023/11/16 02:54:24;;;;;;;10.10;1.55;;;8.50;99.90;;;;;;5074411;28;20373;-86
2023/11/16 02:56:50;;;;;;;14.82;1.65;;;8.50;99.90;;;;;;5073455;28;20114;-87
2023/11/16 02:59:16;;;;;;;8.27;0.93;;;8.50;99.90;;;;;;5072145;28;20028;-87
2023/11/16 03:01:41;;;;;;;18.55;1.73;;;8.50;99.90;;;;;;5071140;28;20025;-87
2023/11/16 03:04:07;;;;;;;10.60;1.50;;;8.50;99.90;;;;;;5074785;28;20081;-87
2023/11/16 03:06:32;;;;;;;9.80;1.17;;;8.50;99.90;;;;;;5074345;28;20028;-87
2023/11/16 03:08:58;;;;;;;9.85;1.60;;;8.50;99.90;;;;;;5074734;28;20520;-87
2023/11/16 03:11:23;;;;;;;9.35;1.00;;;8.50;99.90;;;;;;5072098;28;20411;-88
2023/11/16 03:13:49;;;;;;;10.70;2.38;;;8.50;99.90;;;;;;5071545;28;20016;-89
2023/11/16 03:16:16;;;;;;;10.25;1.35;;;8.60;99.90;;;;;;5091173;28;20028;-88
2023/11/16 03:18:42;;;;;;;5.18;1.08;;;8.50;99.90;;;;;;5074917;28;20035;-88
2023/11/16 03:21:07;;;;;;;8.73;1.45;;;8.50;99.90;;;;;;5068834;28;20029;-88
2023/11/16 03:23:36;;;;;;;10.45;1.27;;;8.50;99.90;;;;;;5074383;28;20030;-87
2023/11/16 03:26:03;;;;;;;10.00;1.30;;;8.50;99.90;;;;;;5071141;28;20032;-87
2023/11/16 03:28:29;;;;;;;9.88;1.63;;;8.50;99.90;;;;;;5073683;28;20032;-88
2023/11/16 03:30:54;;;;;;;7.57;1.27;;;8.50;99.90;;;;;;5073764;28;20081;-88
2023/11/16 03:33:20;;;;;;;8.20;1.13;;;8.50;99.90;;;;;;5074621;28;20118;-88
2023/11/16 03:35:48;;;;;;;7.65;1.63;;;8.50;99.90;;;;;;5077313;28;20223;-88
2023/11/16 03:38:16;;;;;;;7.82;1.60;;;8.50;99.90;;;;;;5074726;28;20129;-87
2023/11/16 03:40:42;;;;;;;14.73;1.70;;;8.50;99.90;;;;;;5072656;28;20373;-88
2023/11/16 03:43:08;;;;;;;9.35;1.40;;;8.50;99.90;;;;;;5072639;28;20028;-88
2023/11/16 03:45:34;;;;;;;10.23;1.45;;;8.50;99.90;;;;;;5070882;28;20472;-88
2023/11/16 03:47:59;;;;;;;11.80;1.42;;;8.50;99.90;;;;;;5068703;28;20036;-89
2023/11/16 03:50:25;;;;;;;10.13;1.65;;;8.50;99.90;;;;;;5073785;28;20081;-89
2023/11/16 03:52:50;;;;;;;13.45;1.50;;;8.50;99.90;;;;;;5086293;28;20499;-89
2023/11/16 03:55:16;;;;;;;8.80;1.40;;;8.50;99.90;;;;;;5074759;28;20483;-89
2023/11/16 03:57:42;;;;;;;9.88;1.48;;;8.50;99.90;;;;;;5070586;28;20020;-89
2023/11/16 04:00:08;;;;;;;7.75;1.70;;;8.50;99.90;;;;;;5073605;28;20027;-89
2023/11/16 04:02:33;;;;;;;14.13;1.90;;;8.50;99.90;;;;;;5090544;28;20079;-88
2023/11/16 04:04:59;;;;;;;5.93;1.40;;;8.50;99.90;;;;;;5072463;28;20466;-89
2023/11/16 04:07:24;;;;;;;12.15;1.42;;;8.40;99.90;;;;;;5068959;28;20042;-89
2023/11/16 04:09:50;;;;;;;11.20;1.83;;;8.40;99.90;;;;;;5088553;28;20051;-89
2023/11/16 04:12:16;;;;;;;10.35;1.95;;;8.40;99.90;;;;;;5074527;28;20119;-89
2023/11/16 04:14:43;;;;;;;8.43;1.95;;;8.40;99.90;;;;;;5073964;28;20031;-89
2023/11/16 04:17:13;;;;;;;6.95;1.60;;;8.50;99.90;;;;;;5073047;28;20024;-89
2023/11/16 04:19:39;;;;;;;12.02;1.60;;;8.50;99.90;;;;;;5074129;28;20023;-89
2023/11/16 04:22:07;;;;;;;7.82;1.95;;;8.40;99.90;;;;;;5092221;28;20016;-89
2023/11/16 04:24:39;;;;;;;7.97;1.38;;;8.50;99.90;;;;;;5068740;28;20020;-89
2023/11/16 04:27:06;;;;;;;9.95;1.92;;;8.50;99.90;;;;;;5086774;28;20121;-89
2023/11/16 04:29:32;;;;;;;10.38;1.73;;;8.40;99.90;;;;;;5074148;28;20031;-89
2023/11/16 04:31:58;;;;;;;7.40;1.40;;;8.50;99.90;;;;;;5090029;28;20032;-89
2023/11/16 04:34:24;;;;;;;9.55;2.20;;;8.50;99.90;;;;;;5084787;28;20024;-89
2023/11/16 04:36:52;;;;;;;16.40;2.97;;;8.40;99.90;;;;;;5092147;28;20081;-88
2023/11/16 04:39:18;;;;;;;10.50;1.70;;;8.50;99.90;;;;;;5066917;28;20032;-89
2023/11/16 04:41:47;;;;;;;12.73;1.67;;;8.50;99.90;;;;;;5083398;28;20044;-89
2023/11/16 04:44:12;;;;;;;11.20;2.03;;;8.50;99.90;;;;;;5073251;28;20078;-89
2023/11/16 04:46:46;;;;;;;10.48;1.83;;;8.40;99.90;;;;;;5073758;28;20036;-89
2023/11/16 04:49:12;;;;;;;10.70;2.78;;;8.40;99.90;;;;;;5073845;28;20078;-88
2023/11/16 04:51:40;;;;;;;12.70;2.00;;;8.40;99.90;;;;;;5073447;28;20118;-89
2023/11/16 04:54:07;;;;;;;12.13;2.42;;;8.40;99.90;;;;;;5074175;28;20025;-90
2023/11/16 04:56:32;;;;;;;12.80;2.85;;;8.30;99.90;;;;;;5076426;28;20119;-89
2023/11/16 04:58:58;;;;;;;10.57;2.47;;;8.30;99.90;;;;;;5076444;28;20051;-89
2023/11/16 05:01:25;;;;;;;11.00;2.78;;;8.30;99.90;;;;;;5088669;28;20031;-89
2023/11/16 05:03:51;;;;;;;11.60;2.33;;;8.20;99.90;;;;;;5071914;28;20383;-88
2023/11/16 05:06:16;;;;;;;9.50;2.95;;;8.20;99.90;;;;;;5073106;28;20032;-89
2023/11/16 05:08:42;;;;;;;12.30;3.15;;;8.20;99.90;;;;;;5068614;28;20219;-89
2023/11/16 05:11:08;;;;;;;11.18;3.35;;;8.20;99.90;;;;;;5072587;28;20032;-90
2023/11/16 05:13:34;;;;;;;13.30;3.42;;;8.10;99.90;;;;;;5074052;28;20115;-89
2023/11/16 05:16:01;;;;;;;11.75;3.17;;;8.10;99.90;;;;;;5089432;28;20400;-88
2023/11/16 05:18:26;;;;;;;9.38;3.22;;;8.10;99.90;;;;;;5073560;28;20467;-89
2023/11/16 05:20:54;;;;;;;14.82;3.97;;;8.10;99.90;;;;;;5094108;28;20067;-90
2023/11/16 05:23:20;;;;;;;15.95;3.60;;;8.10;99.90;;;;;;5076194;28;20031;-89
2023/11/16 05:25:45;;;;;;;14.75;3.90;;;8.10;99.90;;;;;;5073171;28;20028;-89
2023/11/16 05:28:11;;;;;;;14.60;4.95;;;8.10;99.90;;;;;;5092207;28;20036;-89
2023/11/16 05:30:38;;;;;;;12.38;4.07;;;8.00;99.90;;;;;;5092433;28;20017;-89
2023/11/16 05:33:04;;;;;;;15.60;4.82;;;8.00;99.90;;;;;;5088737;28;20475;-89
2023/11/16 05:35:30;;;;;;;14.15;5.40;;;8.00;99.90;;;;;;5091903;28;20065;-89
2023/11/16 05:37:56;;;;;;;9.65;4.30;;;8.00;99.90;;;;;;5089585;28;20028;-89
2023/11/16 05:40:22;;;;;;;13.68;4.43;;;8.00;99.90;;;;;;5077208;28;20040;-89
2023/11/16 05:42:48;;;;;;;12.18;5.15;;;8.00;99.90;;;;;;5095486;28;20028;-89
2023/11/16 05:45:14;;;;;;;17.20;5.97;;;8.10;99.90;;;;;;5076901;28;20028;-89
2023/11/16 05:47:40;;;;;;;16.38;6.22;;;8.00;99.90;;;;;;5087492;28;20127;-89
2023/11/16 05:50:07;;;;;;;19.33;6.20;;;8.00;99.90;;;;;;5060271;28;20032;-89
2023/11/16 05:52:33;;;;;;;18.42;6.50;;;8.00;99.90;;;;;;5085976;28;20070;-88
2023/11/16 05:54:59;;;;;;;13.50;6.05;;;8.00;99.90;;;;;;5081424;28;20302;-89
2023/11/16 05:57:25;;;;;;;18.08;6.32;;;8.00;99.90;;;;;;5073048;28;20024;-89
2023/11/16 05:59:50;;;;;;;20.83;7.75;;;8.00;99.90;;;;;;5094766;28;20020;-89
2023/11/16 06:02:16;;;;;;;15.40;7.95;;;7.90;99.90;;;;;;5069261;28;20059;-88
2023/11/16 06:04:44;;;;;;;23.20;8.15;;;7.90;99.90;;;;;;5063269;28;20458;-89
2023/11/16 06:07:10;;;;;;;18.25;7.90;;;7.90;99.90;;;;;;5070450;28;20029;-89
2023/11/16 06:09:36;;;;;;;20.50;7.28;;;7.90;99.90;;;;;;5073363;28;20082;-89
2023/11/16 06:12:03;;;;;;;18.42;8.10;;;7.80;99.90;;;;;;5071615;28;20028;-89
2023/11/16 06:14:32;;;;;;;23.25;8.00;;;7.90;99.90;;;;;;5072361;28;20028;-90
2023/11/16 06:16:58;;;;;;;23.45;8.70;;;7.80;99.90;;;;;;5066875;28;20442;-89
2023/11/16 06:19:24;;;;;;;22.17;8.07;;;7.80;99.90;;;;;;5073886;28;20028;-89
2023/11/16 06:21:49;;;;;;;20.27;9.60;;;7.70;99.90;;;;;;5065859;28;20079;-89
2023/11/16 06:24:15;;;;;;;20.33;8.20;;;7.70;99.90;;;;;;5069349;28;20029;-89
2023/11/16 06:26:41;;;;;;;20.88;9.10;;;7.70;99.90;;;;;;5067885;28;20538;-89
2023/11/16 06:29:07;;;;;;;19.13;8.60;;;7.70;99.90;;;;;;5070785;28;20535;-88
2023/11/16 06:31:33;;;;;;;24.15;9.10;;;7.70;99.90;;;;;;5068065;28;20120;-89
2023/11/16 06:33:59;;;;;;;18.65;9.05;;;7.70;99.90;;;;;;5065499;28;20024;-89
2023/11/16 06:36:25;;;;;;;19.67;9.07;;;7.70;99.90;;;;;;5072529;28;20392;-89
2023/11/16 06:38:51;;;;;;;16.65;9.18;;;7.70;99.90;;;;;;5069589;28;20043;-89
2023/11/16 06:41:16;;;;;;;22.55;10.10;;;7.70;99.90;;;;;;5072663;28;20025;-89
2023/11/16 06:43:42;;;;;;;20.73;9.70;;;7.70;99.90;;;;;;5073676;28;20079;-89
2023/11/16 06:46:12;;;;;;;21.02;9.30;;;7.70;99.90;;;;;;5070952;28;20020;-90
2023/11/16 06:48:40;;;;;;;16.92;9.27;;;7.70;99.90;;;;;;5064178;28;20119;-88
2023/11/16 06:51:09;;;;;;;21.58;9.43;;;7.60;99.90;;;;;;5065981;28;20021;-89
2023/11/16 06:53:37;;;;;;;22.05;9.70;;;7.70;99.90;;;;;;5067874;28;20393;-88
2023/11/16 06:56:06;;;;;;;23.50;10.60;;;7.60;99.90;;;;;;5065718;28;20032;-89
2023/11/16 06:58:32;;;;;;;26.30;10.85;;;7.70;99.90;;;;;;5069676;28;20035;-89
2023/11/16 07:00:58;;;;;;;22.27;10.32;;;7.70;99.90;;;;;;5072793;28;20388;-89
2023/11/16 07:03:25;;;;;;;22.52;11.80;;;7.70;99.90;;;;;;5090332;28;20044;-88
2023/11/16 07:05:51;;;;;;;22.67;10.77;;;7.70;99.90;;;;;;5081800;28;20024;-88
2023/11/16 07:08:17;;;;;;;18.38;10.80;;;7.70;99.90;;;;;;5072836;28;20547;-88
2023/11/16 07:10:42;;;;;;;22.67;10.35;;;7.70;99.90;;;;;;5086526;28;20138;-88
2023/11/16 07:13:14;;;;;;;25.67;9.63;;;7.70;99.90;;;;;;5067414;28;20028;-89
2023/11/16 07:15:40;;;;;;;21.50;10.32;;;7.70;99.90;;;;;;5074468;28;20029;-89
2023/11/16 07:18:08;;;;;;;24.48;11.45;;;7.70;99.90;;;;;;5072527;28;20032;-88
2023/11/16 07:20:35;;;;;;;24.65;12.02;;;7.70;99.90;;;;;;5073686;28;20887;-89
2023/11/16 07:23:02;;;;;;;21.90;10.75;;;7.80;99.90;;;;;;5071872;28;20021;-89
2023/11/16 07:25:28;;;;;;;22.27;11.68;;;7.80;99.90;;;;;;5068426;28;20036;-88
2023/11/16 07:27:54;;;;;;;21.33;10.30;;;7.80;99.90;;;;;;5069630;28;20066;-88
2023/11/16 07:30:20;;;;;;;23.92;11.95;;;7.80;99.90;;;;;;5068787;28;20112;-89
2023/11/16 07:32:49;;;;;;;26.17;11.30;;;7.80;99.90;;;;;;5075248;28;20622;-88
2023/11/16 07:35:15;;;;;;;24.50;11.15;;;7.80;99.90;;;;;;5073333;28;20031;-88
2023/11/16 07:37:47;;;;;;;22.27;11.35;;;7.80;99.90;;;;;;5064008;28;20039;-88
2023/11/16 07:40:17;;;;;;;24.52;11.70;;;7.80;99.90;;;;;;5074632;28;20031;-88
2023/11/16 07:42:44;;;;;;;23.00;11.23;;;7.90;99.90;;;;;;5074323;28;20054;-89
2023/11/16 07:45:11;;;;;;;30.92;13.00;;;7.90;99.90;;;;;;5075197;28;20028;-88
2023/11/16 07:47:41;;;;;;;24.02;10.48;;;7.90;99.90;;;;;;5074923;28;20040;-89
2023/11/16 07:50:09;;;;;;;23.75;11.20;;;8.00;99.90;;;;;;5075235;28;20029;-88
2023/11/16 07:52:42;;;;;;;20.90;10.65;;;8.00;99.90;;;;;;5071625;28;20032;-88
2023/11/16 07:55:21;;;;;;;19.35;11.23;;;8.00;99.90;;;;;;5088640;28;20028;-88
2023/11/16 07:57:49;;;;;;;18.50;10.68;;;8.00;99.90;;;;;;5093334;28;20020;-88
2023/11/16 08:00:22;;;;;;;34.13;10.63;;;8.00;99.90;;;;;;5075181;28;20111;-87
2023/11/16 08:05:37;;;;;;;21.30;9.38;;;8.00;99.90;;;;;;5094775;28;20030;-89
2023/11/16 08:08:03;;;;;;;19.10;9.25;;;8.00;99.90;;;;;;5075628;28;20039;-88
2023/11/16 08:10:29;;;;;;;26.08;10.07;;;8.10;99.90;;;;;;5075794;28;20472;-89
2023/11/16 08:12:54;;;;;;;21.83;9.45;;;8.10;99.90;;;;;;5094901;28;20049;-88
2023/11/16 08:15:24;;;;;;;17.83;9.13;;;8.10;99.90;;;;;;5092045;28;20020;-88
2023/11/16 08:17:53;;;;;;;12.82;7.70;;;8.20;99.90;;;;;;5074162;28;20034;-89
2023/11/16 08:20:23;;;;;;;20.15;9.40;;;8.20;99.90;;;;;;5069167;28;20016;-88
2023/11/16 08:22:51;;;;;;;17.00;8.80;;;8.20;99.90;;;;;;5070339;28;20033;-89
2023/11/16 08:25:23;;;;;;;24.17;9.43;;;8.20;99.90;;;;;;5071774;28;20516;-89
2023/11/16 08:27:51;;;;;;;25.27;11.30;;;8.30;99.90;;;;;;5072276;28;20040;-88
2023/11/16 08:30:17;;;;;;;21.98;9.43;;;8.30;99.90;;;;;;5054833;28;20032;-88
2023/11/16 08:32:44;;;;;;;25.30;9.60;;;8.40;99.90;;;;;;5059416;28;20024;-88
2023/11/16 08:35:10;;;;;;;24.42;10.55;;;8.40;99.90;;;;;;5072370;28;20052;-88
2023/11/16 08:37:37;;;;;;;23.17;10.07;;;8.40;99.90;;;;;;5072853;28;20064;-88
2023/11/16 08:40:03;;;;;;;22.95;10.25;;;8.50;99.90;;;;;;5055522;28;20025;-88
2023/11/16 08:42:37;;;;;;;20.58;9.60;;;8.50;99.90;;;;;;5066412;28;20027;-88
2023/11/16 08:45:04;;;;;;;19.67;9.98;;;8.60;99.90;;;;;;5075119;28;20027;-88
2023/11/16 08:47:31;;;;;;;19.13;8.90;;;8.60;99.90;;;;;;5074130;28;20094;-88
2023/11/16 08:49:57;;;;;;;19.00;7.85;;;8.70;99.90;;;;;;5071409;28;20024;-88
2023/11/16 08:52:23;;;;;;;15.65;7.80;;;8.70;99.90;;;;;;5075592;28;20526;-89
2023/11/16 08:54:50;;;;;;;21.35;8.70;;;8.70;99.90;;;;;;5074853;28;20017;-88
2023/11/16 08:57:19;;;;;;;16.65;8.00;;;8.70;99.90;;;;;;5066847;28;20089;-89
2023/11/16 08:59:59;;;;;;;18.13;8.68;;;8.70;99.90;;;;;;5108185;28;20019;-89
2023/11/16 09:02:25;;;;;;;16.48;8.30;;;8.80;99.90;;;;;;5062872;28;20040;-89
2023/11/16 09:04:52;;;;;;;16.65;8.30;;;8.70;99.90;;;;;;5078206;28;20392;-90
2023/11/16 09:07:18;;;;;;;20.55;8.73;;;8.70;99.90;;;;;;5079809;28;20036;-89
2023/11/16 09:09:45;;;;;;;16.90;8.95;;;8.70;99.90;;;;;;5073750;28;20039;-89
2023/11/16 09:12:16;;;;;;;21.98;8.02;;;8.70;99.90;;;;;;5070695;28;20032;-89
2023/11/16 09:14:42;;;;;;;23.08;9.80;;;8.80;99.90;;;;;;5060066;28;20024;-88
2023/11/16 09:17:16;;;;;;;22.30;7.82;;;8.80;99.90;;;;;;5075034;28;20050;-90
2023/11/16 09:19:43;;;;;;;19.63;7.75;;;8.80;99.90;;;;;;5090276;28;20035;-89
2023/11/16 09:22:09;;;;;;;25.02;8.70;;;8.80;99.90;;;;;;5090421;28;20024;-90
2023/11/16 09:24:37;;;;;;;17.90;8.35;;;8.80;99.90;;;;;;5077778;28;20028;-89
2023/11/16 09:27:04;;;;;;;19.23;8.48;;;8.80;99.90;;;;;;5063414;28;20028;-89
2023/11/16 09:29:29;;;;;;;17.65;8.23;;;8.80;99.90;;;;;;5072323;28;20044;-89
2023/11/16 09:31:55;;;;;;;20.23;7.95;;;8.80;99.90;;;;;;5083801;28;20024;-89
2023/11/16 09:34:21;;;;;;;19.98;8.05;;;8.80;99.90;;;;;;5073693;28;20123;-89
2023/11/16 09:36:49;;;;;;;21.15;7.55;;;8.90;99.90;;;;;;5072829;28;20403;-88
2023/11/16 09:39:16;;;;;;;36.00;8.52;;;8.90;99.90;;;;;;5076623;28;20487;-89
2023/11/16 09:41:49;;;;;;;15.68;7.82;;;8.90;99.90;;;;;;5082462;28;20024;-89
2023/11/16 09:44:17;;;;;;;14.45;7.50;;;8.90;99.90;;;;;;5076951;28;20020;-89
2023/11/16 09:46:46;;;;;;;21.55;8.07;;;8.90;99.90;;;;;;5076858;28;20036;-89
2023/11/16 09:49:18;;;;;;;18.17;6.90;;;8.90;99.90;;;;;;5078452;28;20050;-89
2023/11/16 09:51:45;;;;;;;22.88;7.50;;;8.90;99.90;;;;;;5085188;28;20127;-89
2023/11/16 09:54:13;;;;;;;18.80;6.90;;;8.90;99.90;;;;;;5080241;28;20063;-89
2023/11/16 09:56:43;;;;;;;19.85;7.22;;;8.90;99.90;;;;;;5078609;28;20029;-89
2023/11/16 09:59:14;;;;;;;18.15;6.78;;;9.00;99.90;;;;;;5075839;28;20447;-89
2023/11/16 10:01:52;;;;;;;21.00;7.85;;;9.00;99.90;;;;;;5085803;28;20027;-89
2023/11/16 10:04:18;;;;;;;17.15;7.38;;;9.00;99.90;;;;;;5075213;28;20060;-89
2023/11/16 10:06:48;;;;;;;15.45;6.85;;;9.00;99.90;;;;;;5093168;28;20106;-89
2023/11/16 10:09:14;;;;;;;18.17;7.53;;;9.10;99.90;;;;;;5072507;28;20468;-89
2023/11/16 10:11:41;;;;;;;21.77;7.50;;;9.10;99.90;;;;;;5076334;28;20053;-88
2023/11/16 10:14:07;;;;;;;20.00;7.95;;;9.10;99.90;;;;;;5073020;28;20047;-88
2023/11/16 10:16:33;;;;;;;18.40;7.55;;;9.10;99.90;;;;;;5074193;28;20563;-90
2023/11/16 10:19:10;;;;;;;16.25;7.85;;;9.10;99.90;;;;;;5094701;28;20060;-89
2023/11/16 10:21:41;;;;;;;17.60;7.78;;;9.10;99.90;;;;;;5068745;28;20024;-89
2023/11/16 10:24:12;;;;;;;14.70;6.57;;;9.00;99.90;;;;;;5086066;28;20073;-90
2023/11/16 10:26:39;;;;;;;15.95;7.35;;;9.00;99.90;;;;;;5077095;28;20298;-89
2023/11/16 10:29:05;;;;;;;22.45;7.13;;;9.00;99.90;;;;;;5082033;28;20073;-89
2023/11/16 10:31:32;;;;;;;18.30;6.80;;;9.00;99.90;;;;;;5075716;28;20063;-89
2023/11/16 10:33:58;;;;;;;20.77;8.15;;;9.00;99.90;;;;;;5079038;28;20024;-88
2023/11/16 10:36:27;;;;;;;13.02;6.78;;;9.00;99.90;;;;;;5079754;28;20032;-89
2023/11/16 10:38:57;;;;;;;17.73;7.53;;;9.10;99.90;;;;;;5084264;28;20094;-89
2023/11/16 10:41:24;;;;;;;17.25;6.75;;;9.10;99.90;;;;;;5074007;28;20029;-89
2023/11/16 10:43:56;;;;;;;14.52;6.43;;;9.10;99.90;;;;;;5080850;28;20409;-88
2023/11/16 10:46:27;;;;;;;23.35;8.02;;;9.10;99.90;;;;;;5077784;28;20036;-88
2023/11/16 10:48:52;;;;;;;14.93;7.68;;;9.00;99.90;;;;;;5083973;28;20032;-89
2023/11/16 10:51:21;;;;;;;18.67;7.30;;;9.10;99.90;;;;;;5078805;28;20069;-89
2023/11/16 10:53:52;;;;;;;16.80;8.10;;;9.10;99.90;;;;;;5069989;28;20182;-89
2023/11/16 10:56:18;;;;;;;22.63;8.30;;;9.10;99.90;;;;;;5089478;28;20055;-89
2023/11/16 10:58:47;;;;;;;20.58;9.40;;;9.10;99.90;;;;;;5071186;28;20064;-89
2023/11/16 11:01:17;;;;;;;25.50;8.48;;;9.10;99.90;;;;;;5075607;28;20459;-90
2023/11/16 11:03:44;;;;;;;22.90;8.38;;;9.20;99.90;;;;;;5081602;28;20135;-89
2023/11/16 11:06:19;;;;;;;16.10;9.13;;;9.20;99.90;;;;;;5090789;28;20028;-89
2023/11/16 11:08:45;;;;;;;17.58;8.10;;;9.20;99.90;;;;;;5075331;28;20036;-89
2023/11/16 11:11:11;;;;;;;17.50;8.85;;;9.30;99.90;;;;;;5069421;28;20046;-89
2023/11/16 11:13:39;;;;;;;22.83;9.63;;;9.30;99.90;;;;;;5075030;28;20027;-89
2023/11/16 11:16:10;;;;;;;19.77;9.00;;;9.20;99.90;;;;;;5074693;28;20044;-89
2023/11/16 11:18:52;;;;;;;24.00;9.15;;;9.30;99.90;;;;;;5083174;28;20028;-89
2023/11/16 11:21:20;;;;;;;21.65;10.40;;;9.30;99.90;;;;;;5092355;28;20496;-89
2023/11/16 11:23:59;;;;;;;21.60;10.45;;;9.30;99.90;;;;;;5076841;28;20111;-89
2023/11/16 11:26:24;;;;;;;24.77;11.32;;;9.30;99.90;;;;;;5070013;28;20533;-89
2023/11/16 11:28:52;;;;;;;27.90;13.00;;;9.30;99.90;;;;;;5075384;28;20028;-89
2023/11/16 11:31:31;;;;;;;28.50;13.07;;;9.40;99.90;;;;;;5075172;28;20387;-89
2023/11/16 11:33:58;;;;;;;24.63;13.45;;;9.30;99.90;;;;;;5061020;28;20484;-89
2023/11/16 11:36:24;;;;;;;29.10;15.23;;;9.40;99.90;;;;;;5065317;28;20028;-90
2023/11/16 11:38:54;;;;;;;26.00;14.75;;;9.40;99.90;;;;;;5074932;28;20035;-89
2023/11/16 11:41:22;;;;;;;23.35;14.27;;;9.40;99.90;;;;;;5074108;28;20031;-89
2023/11/16 11:43:48;;;;;;;24.00;14.13;;;9.50;99.90;;;;;;5075025;28;20074;-88
2023/11/16 11:46:18;;;;;;;27.10;14.30;;;9.50;99.90;;;;;;5070819;28;20024;-89
2023/11/16 11:48:48;;;;;;;27.77;15.07;;;9.50;99.90;;;;;;5073404;28;20035;-89
2023/11/16 11:51:20;;;;;;;24.42;13.27;;;9.50;99.90;;;;;;5075626;28;20039;-90
2023/11/16 11:53:46;;;;;;;22.58;14.05;;;9.50;99.90;;;;;;5073241;28;20021;-90
2023/11/16 11:56:15;;;;;;;22.67;13.25;;;9.50;99.90;;;;;;5071128;28;20540;-90
2023/11/16 11:58:42;;;;;;;27.77;13.93;;;9.50;99.90;;;;;;5081325;28;20055;-90
2023/11/16 12:01:10;;;;;;;21.35;13.45;;;9.40;99.90;;;;;;5072830;28;20024;-90
2023/11/16 12:03:52;;;;;;;21.80;12.85;;;9.30;99.90;;;;;;5090847;28;20071;-90
2023/11/16 12:06:18;;;;;;;20.90;12.27;;;9.40;99.90;;;;;;5072465;28;20480;-89
2023/11/16 12:08:46;;;;;;;21.17;12.02;;;9.30;99.90;;;;;;5066954;28;20051;-90
2023/11/16 12:11:17;;;;;;;28.05;13.18;;;9.30;99.90;;;;;;5085012;28;20024;-90
2023/11/16 12:13:44;;;;;;;21.13;12.52;;;9.30;99.90;;;;;;5072389;28;20027;-90
2023/11/16 12:16:12;;;;;;;22.58;14.32;;;9.20;99.90;;;;;;5093237;28;20111;-90
2023/11/16 12:18:41;;;;;;;25.02;15.30;;;9.20;99.90;;;;;;5093657;28;20034;-89
2023/11/16 12:21:17;;;;;;;26.83;16.23;;;9.10;99.90;;;;;;5077220;28;20062;-89
2023/11/16 12:23:53;;;;;;;27.50;15.48;;;9.10;99.90;;;;;;5086937;28;20032;-90
2023/11/16 12:26:29;;;;;;;23.90;15.25;;;9.10;99.90;;;;;;5086865;28;20024;-90
2023/11/16 12:28:56;;;;;;;23.02;13.13;;;9.00;99.90;;;;;;5064720;28;20052;-90
2023/11/16 12:31:26;;;;;;;25.65;14.00;;;9.00;99.90;;;;;;5091816;28;20392;-90
2023/11/16 12:33:53;;;;;;;20.65;13.02;;;8.90;99.90;;;;;;5088281;28;20019;-89
2023/11/16 12:36:26;;;;;;;29.85;14.85;;;9.00;99.90;;;;;;5070786;28;20026;-89
2023/11/16 12:38:53;;;;;;;24.80;13.98;;;9.00;99.90;;;;;;5071808;28;20020;-90
2023/11/16 12:41:19;;;;;;;22.10;13.02;;;9.00;99.90;;;;;;5069658;28;20067;-90
2023/11/16 12:43:45;;;;;;;25.85;14.60;;;9.10;99.90;;;;;;5071799;28;20111;-89
2023/11/16 12:46:11;;;;;;;29.02;16.42;;;9.10;99.90;;;;;;5071688;28;20114;-90
2023/11/16 12:48:41;;;;;;;27.42;18.83;;;9.10;99.90;;;;;;5076156;28;20062;-90
2023/11/16 12:51:08;;;;;;;32.22;19.02;;;9.10;99.90;;;;;;5071803;28;20020;-89